createdAt,value
2018-07-09T00:01:35.091Z,100334.00
2018-07-09T00:04:05.031Z,100332.00
2018-07-09T00:06:34.945Z,100327.00
2018-07-09T00:09:04.938Z,100330.00
2018-07-09T00:11:34.874Z,100332.00
2018-07-09T00:14:04.796Z,100333.00
2018-07-09T00:16:34.747Z,100329.00
2018-07-09T00:19:04.686Z,100326.00
2018-07-09T00:21:34.628Z,100323.00
2018-07-09T00:24:04.558Z,100318.00
2018-07-09T00:26:34.482Z,100320.00
2018-07-09T00:29:04.421Z,100320.00
2018-07-09T00:31:34.330Z,100325.00
2018-07-09T00:34:04.404Z,100323.00
2018-07-09T00:36:34.360Z,100317.00
2018-07-09T00:39:05.009Z,100322.00
2018-07-09T00:41:36.207Z,100320.00
2018-07-09T00:44:06.188Z,100326.00
2018-07-09T00:46:36.140Z,100327.00
2018-07-09T00:49:06.227Z,100322.00
2018-07-09T00:51:36.189Z,100325.00
2018-07-09T00:54:06.188Z,100318.00
2018-07-09T00:56:36.151Z,100320.00
2018-07-09T00:59:06.131Z,100324.00
2018-07-09T01:01:36.132Z,100325.00
2018-07-09T01:04:06.116Z,100323.00
2018-07-09T01:06:36.176Z,100319.00
2018-07-09T01:09:06.712Z,100315.00
2018-07-09T01:11:44.732Z,100316.00
2018-07-09T01:14:14.711Z,100316.00
2018-07-09T01:16:44.668Z,100317.00
2018-07-09T01:19:14.668Z,100312.00
2018-07-09T01:21:44.636Z,100309.00
2018-07-09T01:24:14.612Z,100316.00
2018-07-09T01:26:44.617Z,100308.00
2018-07-09T01:29:14.659Z,100307.00
2018-07-09T01:31:44.611Z,100306.00
2018-07-09T01:34:14.580Z,100309.00
2018-07-09T01:36:44.555Z,100311.00
2018-07-09T01:39:14.811Z,100310.00
2018-07-09T01:41:44.785Z,100308.00
2018-07-09T01:44:14.765Z,100307.00
2018-07-09T01:46:44.728Z,100309.00
2018-07-09T01:49:14.699Z,100302.00
2018-07-09T01:51:44.660Z,100302.00
2018-07-09T01:54:14.632Z,100305.00
2018-07-09T01:56:44.583Z,100307.00
2018-07-09T01:59:14.955Z,100307.00
2018-07-09T02:01:45.043Z,100307.00
2018-07-09T02:04:14.992Z,100310.00
2018-07-09T02:06:44.962Z,100311.00
2018-07-09T02:09:14.915Z,100310.00
2018-07-09T02:11:44.888Z,100309.00
2018-07-09T02:14:14.854Z,100316.00
2018-07-09T02:16:44.883Z,100304.00
2018-07-09T02:19:14.864Z,100307.00
2018-07-09T02:21:44.832Z,100300.00
2018-07-09T02:24:15.025Z,100299.00
2018-07-09T02:26:44.741Z,100296.00
2018-07-09T02:29:14.705Z,100301.00
2018-07-09T02:31:44.689Z,100297.00
2018-07-09T02:34:14.661Z,100297.00
2018-07-09T02:36:44.629Z,100303.00
2018-07-09T02:39:14.590Z,100302.00
2018-07-09T02:41:44.595Z,100297.00
2018-07-09T02:44:14.567Z,100301.00
2018-07-09T02:46:44.517Z,100303.00
2018-07-09T02:49:14.570Z,100306.00
2018-07-09T02:51:44.462Z,100308.00
2018-07-09T02:54:14.445Z,100309.00
2018-07-09T02:56:44.405Z,100310.00
2018-07-09T02:59:14.400Z,100312.00
2018-07-09T03:01:44.404Z,100310.00
2018-07-09T03:04:14.373Z,100308.00
2018-07-09T03:06:44.337Z,100313.00
2018-07-09T03:09:14.325Z,100317.00
2018-07-09T03:11:44.276Z,100312.00
2018-07-09T03:14:14.253Z,100307.00
2018-07-09T03:16:44.236Z,100309.00
2018-07-09T03:19:14.305Z,100310.00
2018-07-09T03:21:44.196Z,100303.00
2018-07-09T03:24:14.509Z,100305.00
2018-07-09T03:26:44.464Z,100305.00
2018-07-09T03:29:14.428Z,100305.00
2018-07-09T03:31:44.389Z,100308.00
2018-07-09T03:34:14.363Z,100311.00
2018-07-09T03:36:44.428Z,100317.00
2018-07-09T03:39:14.785Z,100317.00
2018-07-09T03:41:44.764Z,100320.00
2018-07-09T03:44:14.738Z,100328.00
2018-07-09T03:46:44.717Z,100328.00
2018-07-09T03:49:14.695Z,100335.00
2018-07-09T03:51:44.656Z,100327.00
2018-07-09T03:54:14.812Z,100327.00
2018-07-09T03:56:44.772Z,100325.00
2018-07-09T03:59:14.753Z,100326.00
2018-07-09T04:01:44.728Z,100319.00
2018-07-09T04:04:14.719Z,100313.00
2018-07-09T04:06:44.656Z,100318.00
2018-07-09T04:09:14.612Z,100317.00
2018-07-09T04:11:44.588Z,100320.00
2018-07-09T04:14:14.552Z,100326.00
2018-07-09T04:16:44.520Z,100325.00
2018-07-09T04:19:14.487Z,100337.00
2018-07-09T04:21:44.475Z,100329.00
2018-07-09T04:24:14.653Z,100330.00
2018-07-09T04:26:44.639Z,100332.00
2018-07-09T04:29:14.624Z,100333.00
2018-07-09T04:31:44.626Z,100330.00
2018-07-09T04:34:14.564Z,100334.00
2018-07-09T04:36:44.564Z,100342.00
2018-07-09T04:39:14.645Z,100337.00
2018-07-09T04:41:44.620Z,100338.00
2018-07-09T04:44:14.580Z,100338.00
2018-07-09T04:46:44.547Z,100331.00
2018-07-09T04:49:14.516Z,100328.00
2018-07-09T04:51:44.524Z,100326.00
2018-07-09T04:54:14.493Z,100332.00
2018-07-09T04:56:44.481Z,100335.00
2018-07-09T04:59:14.523Z,100335.00
2018-07-09T05:01:44.496Z,100333.00
2018-07-09T05:04:14.464Z,100339.00
2018-07-09T05:06:44.476Z,100332.00
2018-07-09T05:09:14.439Z,100328.00
2018-07-09T05:11:44.425Z,100325.00
2018-07-09T05:14:14.396Z,100320.00
2018-07-09T05:16:44.572Z,100321.00
2018-07-09T05:19:14.528Z,100326.00
2018-07-09T05:21:44.508Z,100322.00
2018-07-09T05:24:14.472Z,100322.00
2018-07-09T05:26:44.448Z,100327.00
2018-07-09T05:29:14.420Z,100328.00
2018-07-09T05:31:44.400Z,100323.00
2018-07-09T05:34:14.377Z,100322.00
2018-07-09T05:36:44.387Z,100320.00
2018-07-09T05:39:14.351Z,100318.00
2018-07-09T05:41:44.337Z,100317.00
2018-07-09T05:44:14.300Z,100315.00
2018-07-09T05:46:44.278Z,100321.00
2018-07-09T05:49:14.320Z,100322.00
2018-07-09T05:51:44.878Z,100323.00
2018-07-09T05:54:14.823Z,100321.00
2018-07-09T05:56:44.807Z,100323.00
2018-07-09T05:59:14.778Z,100322.00
2018-07-09T06:01:44.788Z,100323.00
2018-07-09T06:04:14.784Z,100320.00
2018-07-09T06:06:44.751Z,100323.00
2018-07-09T06:09:14.881Z,100328.00
2018-07-09T06:11:44.861Z,100329.00
2018-07-09T06:14:14.830Z,100318.00
2018-07-09T06:16:44.800Z,100312.00
2018-07-09T06:19:14.826Z,100309.00
2018-07-09T06:21:44.756Z,100314.00
2018-07-09T06:24:14.803Z,100314.00
2018-07-09T06:26:44.760Z,100319.00
2018-07-09T06:29:14.937Z,100317.00
2018-07-09T06:31:44.928Z,100321.00
2018-07-09T06:34:14.980Z,100321.00
2018-07-09T06:36:44.949Z,100321.00
2018-07-09T06:39:15.261Z,100315.00
2018-07-09T06:41:45.253Z,100316.00
2018-07-09T06:44:15.276Z,100312.00
2018-07-09T06:46:45.254Z,100313.00
2018-07-09T06:49:15.216Z,100306.00
2018-07-09T06:51:45.198Z,100307.00
2018-07-09T06:54:15.563Z,100314.00
2018-07-09T06:56:45.552Z,100305.00
2018-07-09T06:59:15.544Z,100304.00
2018-07-09T07:01:45.568Z,100300.00
2018-07-09T07:04:15.495Z,100299.00
2018-07-09T07:06:45.469Z,100295.00
2018-07-09T07:09:15.567Z,100292.00
2018-07-09T07:11:45.423Z,100281.00
2018-07-09T07:14:15.437Z,100282.00
2018-07-09T07:16:45.372Z,100277.00
2018-07-09T07:19:15.370Z,100276.00
2018-07-09T07:21:45.455Z,100270.00
2018-07-09T07:24:15.927Z,100272.00
2018-07-09T07:26:45.915Z,100269.00
2018-07-09T07:29:15.892Z,100266.00
2018-07-09T07:31:45.861Z,100266.00
2018-07-09T07:34:15.928Z,100261.00
2018-07-09T07:36:45.904Z,100256.00
2018-07-09T07:39:15.976Z,100256.00
2018-07-09T07:41:45.924Z,100261.00
2018-07-09T07:44:15.997Z,100252.00
2018-07-09T07:46:46.204Z,100259.00
2018-07-09T07:49:16.177Z,100260.00
2018-07-09T07:51:46.148Z,100255.00
2018-07-09T07:54:16.128Z,100257.00
2018-07-09T07:56:46.216Z,100251.00
2018-07-09T07:59:16.268Z,100251.00
2018-07-09T08:01:46.232Z,100252.00
2018-07-09T08:04:16.240Z,100244.00
2018-07-09T08:06:46.220Z,100246.00
2018-07-09T08:09:16.362Z,100249.00
2018-07-09T08:11:49.192Z,100245.00
2018-07-09T08:14:16.582Z,100251.00
2018-07-09T08:16:46.626Z,100253.00
2018-07-09T08:19:16.622Z,100249.00
2018-07-09T08:21:46.617Z,100254.00
2018-07-09T08:24:16.933Z,100259.00
2018-07-09T08:26:46.908Z,100260.00
2018-07-09T08:29:16.888Z,100262.00
2018-07-09T08:31:46.928Z,100263.00
2018-07-09T08:34:17.017Z,100262.00
2018-07-09T08:36:47.026Z,100261.00
2018-07-09T08:39:17.048Z,100256.00
2018-07-09T08:41:47.038Z,100254.00
2018-07-09T08:44:17.019Z,100246.00
2018-07-09T08:46:47.000Z,100253.00
2018-07-09T08:49:16.827Z,100257.00
2018-07-09T08:51:46.677Z,100251.00
2018-07-09T08:54:16.776Z,100250.00
2018-07-09T08:56:46.844Z,100255.00
2018-07-09T08:59:16.832Z,100253.00
2018-07-09T09:01:46.791Z,100257.00
2018-07-09T09:04:16.782Z,100254.00
2018-07-09T09:06:46.854Z,100264.00
2018-07-09T09:09:16.920Z,100252.00
2018-07-09T09:11:46.879Z,100256.00
2018-07-09T09:14:16.879Z,100250.00
2018-07-09T09:16:46.909Z,100258.00
2018-07-09T09:19:16.906Z,100250.00
2018-07-09T09:21:46.896Z,100255.00
2018-07-09T09:24:17.040Z,100254.00
2018-07-09T09:26:47.067Z,100251.00
2018-07-09T09:29:17.050Z,100248.00
2018-07-09T09:31:47.096Z,100251.00
2018-07-09T09:34:17.086Z,100231.00
2018-07-09T09:36:47.035Z,100234.00
2018-07-09T09:39:17.017Z,100231.00
2018-07-09T09:41:46.986Z,100235.00
2018-07-09T09:44:16.956Z,100229.00
2018-07-09T09:46:47.301Z,100224.00
2018-07-09T09:49:17.386Z,100223.00
2018-07-09T09:51:47.320Z,100222.00
2018-07-09T09:54:17.313Z,100219.00
2018-07-09T09:56:47.412Z,100217.00
2018-07-09T09:59:17.377Z,100214.00
2018-07-09T10:01:47.344Z,100208.00
2018-07-09T10:04:17.420Z,100214.00
2018-07-09T10:06:47.404Z,100203.00
2018-07-09T10:09:17.378Z,100202.00
2018-07-09T10:11:47.440Z,100200.00
2018-07-09T10:14:17.407Z,100202.00
2018-07-09T10:16:47.393Z,100197.00
2018-07-09T10:19:17.391Z,100199.00
2018-07-09T10:21:47.359Z,100200.00
2018-07-09T10:24:17.324Z,100197.00
2018-07-09T10:26:47.384Z,100192.00
2018-07-09T10:29:17.457Z,100190.00
2018-07-09T10:31:47.412Z,100187.00
2018-07-09T10:34:17.380Z,100189.00
2018-07-09T10:36:47.336Z,100185.00
2018-07-09T10:39:17.477Z,100184.00
2018-07-09T10:41:47.472Z,100173.00
2018-07-09T10:44:17.432Z,100170.00
2018-07-09T10:46:47.448Z,100166.00
2018-07-09T10:49:17.412Z,100166.00
2018-07-09T10:51:47.414Z,100158.00
2018-07-09T10:54:17.395Z,100167.00
2018-07-09T10:56:47.396Z,100170.00
2018-07-09T10:59:17.378Z,100170.00
2018-07-09T11:01:47.408Z,100178.00
2018-07-09T11:04:17.469Z,100165.00
2018-07-09T11:06:47.444Z,100164.00
2018-07-09T11:09:17.556Z,100152.00
2018-07-09T11:11:47.601Z,100160.00
2018-07-09T11:14:17.557Z,100150.00
2018-07-09T11:16:47.515Z,100158.00
2018-07-09T11:19:17.616Z,100154.00
2018-07-09T11:21:47.668Z,100147.00
2018-07-09T11:24:17.655Z,100150.00
2018-07-09T11:26:47.640Z,100135.00
2018-07-09T11:29:17.633Z,100140.00
2018-07-09T11:31:47.637Z,100137.00
2018-07-09T11:34:17.612Z,100146.00
2018-07-09T11:36:47.628Z,100147.00
2018-07-09T11:39:17.600Z,100148.00
2018-07-09T11:41:47.607Z,100143.00
2018-07-09T11:44:17.573Z,100149.00
2018-07-09T11:46:47.552Z,100139.00
2018-07-09T11:49:17.516Z,100147.00
2018-07-09T11:51:47.611Z,100143.00
2018-07-09T11:54:17.576Z,100140.00
2018-07-09T11:56:47.532Z,100134.00
2018-07-09T11:59:17.501Z,100140.00
2018-07-09T12:01:48.289Z,100135.00
2018-07-09T12:04:19.374Z,100140.00
2018-07-09T12:06:49.376Z,100136.00
2018-07-09T12:09:19.338Z,100132.00
2018-07-09T12:11:49.352Z,100127.00
2018-07-09T12:14:19.332Z,100133.00
2018-07-09T12:16:49.299Z,100126.00
2018-07-09T12:19:19.308Z,100125.00
2018-07-09T12:21:49.339Z,100126.00
2018-07-09T12:24:19.080Z,100130.00
2018-07-09T12:26:48.927Z,100130.00
2018-07-09T12:29:18.888Z,100130.00
2018-07-09T12:31:48.879Z,100127.00
2018-07-09T12:34:18.833Z,100114.00
2018-07-09T12:36:48.868Z,100102.00
2018-07-09T12:39:18.839Z,100108.00
2018-07-09T12:41:48.857Z,100116.00
2018-07-09T12:44:18.892Z,100112.00
2018-07-09T12:46:48.875Z,100111.00
2018-07-09T12:49:18.844Z,100103.00
2018-07-09T12:51:48.841Z,100107.00
2018-07-09T12:54:19.813Z,100102.00
2018-07-09T12:56:49.797Z,100095.00
2018-07-09T12:59:19.771Z,100089.00
2018-07-09T13:01:50.076Z,100092.00
2018-07-09T13:04:20.117Z,100094.00
2018-07-09T13:06:50.079Z,100091.00
2018-07-09T13:09:20.033Z,100096.00
2018-07-09T13:11:50.000Z,100089.00
2018-07-09T13:14:19.976Z,100100.00
2018-07-09T13:16:49.970Z,100092.00
2018-07-09T13:19:19.971Z,100087.00
2018-07-09T13:21:50.012Z,100085.00
2018-07-09T13:24:20.068Z,100078.00
2018-07-09T13:26:50.056Z,100077.00
2018-07-09T13:29:19.908Z,100073.00
2018-07-09T13:31:49.773Z,100070.00
2018-07-09T13:34:19.795Z,100065.00
2018-07-09T13:36:50.208Z,100064.00
2018-07-09T13:39:20.166Z,100073.00
2018-07-09T13:41:50.215Z,100071.00
2018-07-09T13:44:20.115Z,100078.00
2018-07-09T13:46:49.967Z,100073.00
2018-07-09T13:49:20.170Z,100068.00
2018-07-09T13:51:50.207Z,100056.00
2018-07-09T13:54:20.894Z,100056.00
2018-07-09T13:56:50.892Z,100059.00
2018-07-09T13:59:20.924Z,100057.00
2018-07-09T14:01:50.897Z,100055.00
2018-07-09T14:04:20.885Z,100052.00
2018-07-09T14:06:50.844Z,100058.00
2018-07-09T14:09:21.012Z,100058.00
2018-07-09T14:11:50.975Z,100051.00
2018-07-09T14:14:20.960Z,100052.00
2018-07-09T14:16:51.013Z,100047.00
2018-07-09T14:20:51.153Z,100044.00
2018-07-09T14:23:21.171Z,100035.00
2018-07-09T14:25:51.139Z,100035.00
2018-07-09T14:28:21.148Z,100038.00
2018-07-09T14:30:50.945Z,100039.00
2018-07-09T14:33:20.810Z,100030.00
2018-07-09T14:35:50.812Z,100031.00
2018-07-09T14:38:20.899Z,100029.00
2018-07-09T14:40:50.857Z,100034.00
2018-07-09T14:43:20.903Z,100029.00
2018-07-09T14:45:50.863Z,100025.00
2018-07-09T14:48:20.843Z,100024.00
2018-07-09T14:50:50.855Z,100026.00
2018-07-09T14:53:20.817Z,100021.00
2018-07-09T14:55:50.847Z,100025.00
2018-07-09T14:58:20.904Z,100016.00
2018-07-09T15:00:50.919Z,100013.00
2018-07-09T15:03:20.905Z,100013.00
2018-07-09T15:05:50.869Z,100013.00
2018-07-09T15:08:20.845Z,100008.00
2018-07-09T15:10:50.841Z,100003.00
2018-07-09T15:13:20.812Z,100002.00
2018-07-09T15:15:50.952Z,100005.00
2018-07-09T15:18:21.044Z,99995.00
2018-07-09T15:20:51.013Z,99996.00
2018-07-09T15:23:20.993Z,99980.00
2018-07-09T15:25:50.952Z,99991.00
2018-07-09T15:28:20.924Z,99998.00
2018-07-09T15:30:50.880Z,100000.00
2018-07-09T15:33:20.904Z,99997.00
2018-07-09T15:35:50.875Z,99994.00
2018-07-09T15:38:20.846Z,99988.00
2018-07-09T15:40:50.859Z,100002.00
2018-07-09T15:44:03.364Z,99995.00
2018-07-09T15:46:33.311Z,99996.00
2018-07-09T15:49:03.298Z,99990.00
2018-07-09T15:51:33.415Z,99990.00
2018-07-09T15:54:03.400Z,99995.00
2018-07-09T15:56:33.353Z,99984.00
2018-07-09T15:59:03.368Z,99985.00
2018-07-09T16:01:33.352Z,99978.00
2018-07-09T16:04:03.334Z,99975.00
2018-07-09T16:06:33.365Z,99982.00
2018-07-09T16:09:04.184Z,99966.00
2018-07-09T16:11:34.348Z,99968.00
2018-07-09T16:14:04.347Z,99960.00
2018-07-09T16:16:34.584Z,99958.00
2018-07-09T16:19:04.316Z,99958.00
2018-07-09T16:21:34.225Z,99957.00
2018-07-09T16:24:04.356Z,99957.00
2018-07-09T16:26:34.312Z,99963.00
2018-07-09T16:29:04.328Z,99961.00
2018-07-09T16:31:34.254Z,99957.00
2018-07-09T16:34:03.976Z,99957.00
2018-07-09T16:36:33.914Z,99962.00
2018-07-09T16:39:05.362Z,99959.00
2018-07-09T16:41:35.805Z,99959.00
2018-07-09T16:44:06.148Z,99956.00
2018-07-09T16:46:36.106Z,99954.00
2018-07-09T16:49:06.221Z,99954.00
2018-07-09T16:51:36.216Z,99952.00
2018-07-09T16:54:06.260Z,99948.00
2018-07-09T16:56:36.265Z,99949.00
2018-07-09T16:59:06.247Z,99946.00
2018-07-09T17:01:36.271Z,99945.00
2018-07-09T17:04:06.414Z,99947.00
2018-07-09T17:06:36.375Z,99952.00
2018-07-09T17:09:06.660Z,99964.00
2018-07-09T17:11:36.641Z,99964.00
2018-07-09T17:14:07.365Z,99962.00
2018-07-09T17:16:37.344Z,99960.00
2018-07-09T17:19:07.464Z,99963.00
2018-07-09T17:21:37.387Z,99964.00
2018-07-09T17:24:07.952Z,99974.00
2018-07-09T17:26:38.107Z,99967.00
2018-07-09T17:29:08.095Z,99970.00
2018-07-09T17:31:38.057Z,99972.00
2018-07-09T17:34:08.364Z,99973.00
2018-07-09T17:36:38.368Z,99978.00
2018-07-09T17:39:08.332Z,99977.00
2018-07-09T17:41:38.308Z,99986.00
2018-07-09T17:44:08.730Z,99990.00
2018-07-09T17:46:38.602Z,99997.00
2018-07-09T17:49:08.567Z,99991.00
2018-07-09T17:51:38.599Z,99994.00
2018-07-09T17:54:08.712Z,99991.00
2018-07-09T17:56:38.733Z,100001.00
2018-07-09T17:59:08.749Z,99998.00
2018-07-09T18:01:38.852Z,99995.00
2018-07-09T18:04:09.176Z,99992.00
2018-07-09T18:06:39.168Z,99993.00
2018-07-09T18:09:09.220Z,99993.00
2018-07-09T18:11:39.200Z,99987.00
2018-07-09T18:14:09.369Z,99996.00
2018-07-09T18:16:39.359Z,99994.00
2018-07-09T18:19:09.539Z,99995.00
2018-07-09T18:21:39.458Z,99993.00
2018-07-09T18:24:09.772Z,99994.00
2018-07-09T18:26:39.826Z,99998.00
2018-07-09T18:29:09.781Z,100004.00
2018-07-09T18:31:39.822Z,100002.00
2018-07-09T18:34:10.012Z,100001.00
2018-07-09T18:36:41.212Z,100001.00
2018-07-09T18:39:11.651Z,100005.00
2018-07-09T18:41:42.008Z,99999.00
2018-07-09T18:44:12.076Z,100000.00
2018-07-09T18:46:42.056Z,100004.00
2018-07-09T18:49:12.028Z,99997.00
2018-07-09T18:51:42.252Z,100005.00
2018-07-09T18:54:13.008Z,100007.00
2018-07-09T18:56:43.628Z,100012.00
2018-07-09T18:59:13.956Z,100010.00
2018-07-09T19:01:44.184Z,100010.00
2018-07-09T19:04:15.204Z,100012.00
2018-07-09T19:06:55.470Z,100006.00
2018-07-09T19:09:26.422Z,100009.00
2018-07-09T19:11:57.200Z,100009.00
2018-07-09T19:14:38.477Z,100011.00
2018-07-09T19:18:25.569Z,100009.00
2018-07-09T19:21:42.245Z,100008.00
2018-07-09T19:24:12.428Z,100019.00
2018-07-09T19:26:42.041Z,100018.00
2018-07-09T19:29:10.572Z,100016.00
2018-07-09T19:31:39.106Z,100019.00
2018-07-09T19:34:07.614Z,100021.00
2018-07-09T19:36:36.311Z,100022.00
2018-07-09T19:39:05.188Z,100020.00
2018-07-09T19:41:33.977Z,100024.00
2018-07-09T19:44:02.300Z,100023.00
2018-07-09T19:46:30.756Z,100024.00
2018-07-09T19:48:59.278Z,100030.00
2018-07-09T19:51:27.724Z,100027.00
2018-07-09T19:53:56.184Z,100029.00
2018-07-09T19:56:24.645Z,100029.00
2018-07-09T19:58:53.099Z,100023.00
2018-07-09T20:01:21.540Z,100027.00
2018-07-09T20:03:49.999Z,100030.00
2018-07-09T20:06:18.465Z,100025.00
2018-07-09T20:08:52.111Z,100030.00
2018-07-09T20:11:25.964Z,100035.00
2018-07-09T20:14:08.756Z,100034.00
2018-07-09T20:16:42.341Z,100033.00
2018-07-09T20:19:11.259Z,100031.00
2018-07-09T20:21:39.915Z,100027.00
2018-07-09T20:24:08.256Z,100021.00
2018-07-09T20:26:36.701Z,100026.00
2018-07-09T20:29:05.152Z,100023.00
2018-07-09T20:31:33.860Z,100029.00
2018-07-09T20:34:02.196Z,100031.00
2018-07-09T20:36:30.648Z,100032.00
2018-07-09T20:38:59.096Z,100038.00
2018-07-09T20:41:27.536Z,100038.00
2018-07-09T20:43:55.992Z,100035.00
2018-07-09T20:46:24.440Z,100035.00
2018-07-09T20:48:52.901Z,100041.00
2018-07-09T20:51:21.348Z,100044.00
2018-07-09T20:53:49.832Z,100051.00
2018-07-09T20:56:18.455Z,100042.00
2018-07-09T20:58:46.916Z,100048.00
2018-07-09T21:01:15.374Z,100053.00
2018-07-09T21:03:43.843Z,100056.00
2018-07-09T21:06:12.284Z,100060.00
2018-07-09T21:08:40.737Z,100054.00
2018-07-09T21:11:09.240Z,100051.00
2018-07-09T21:13:37.951Z,100053.00
2018-07-09T21:16:06.436Z,100055.00
2018-07-09T21:18:34.728Z,100048.00
2018-07-09T21:21:03.177Z,100048.00
2018-07-09T21:23:31.644Z,100049.00
2018-07-09T21:26:00.088Z,100049.00
2018-07-09T21:28:28.543Z,100056.00
2018-07-09T21:30:56.992Z,100057.00
2018-07-09T21:33:25.454Z,100058.00
2018-07-09T21:35:53.900Z,100052.00
2018-07-09T21:38:22.363Z,100061.00
2018-07-09T21:40:50.812Z,100064.00
2018-07-09T21:43:19.283Z,100064.00
2018-07-09T21:45:47.737Z,100059.00
2018-07-09T21:48:16.220Z,100063.00
2018-07-09T21:50:44.676Z,100062.00
2018-07-09T21:53:14.235Z,100063.00
2018-07-09T21:55:43.248Z,100058.00
2018-07-09T21:58:13.617Z,100054.00
2018-07-09T22:00:42.348Z,100050.00
2018-07-09T22:03:10.788Z,100054.00
2018-07-09T22:05:39.249Z,100055.00
2018-07-09T22:08:07.699Z,100051.00
2018-07-09T22:10:36.152Z,100047.00
2018-07-09T22:13:04.744Z,100047.00
2018-07-09T22:15:33.208Z,100042.00
2018-07-09T22:18:01.653Z,100048.00
2018-07-09T22:20:30.107Z,100050.00
2018-07-09T22:22:58.560Z,100044.00
2018-07-09T22:25:27.020Z,100038.00
2018-07-09T22:27:55.455Z,100040.00
2018-07-09T22:30:29.496Z,100037.00
2018-07-09T22:32:59.680Z,100040.00
2018-07-09T22:35:29.648Z,100043.00
2018-07-09T22:37:59.605Z,100051.00
2018-07-09T22:40:29.572Z,100051.00
2018-07-09T22:43:05.321Z,100051.00
2018-07-09T22:45:35.286Z,100052.00
2018-07-09T22:48:05.516Z,100051.00
2018-07-09T22:50:35.560Z,100053.00
2018-07-09T22:53:05.515Z,100052.00
2018-07-09T22:55:52.316Z,100051.00
2018-07-09T22:58:22.296Z,100052.00
2018-07-09T23:00:52.292Z,100042.00
2018-07-09T23:03:22.275Z,100044.00
2018-07-09T23:05:52.249Z,100043.00
2018-07-09T23:08:23.028Z,100041.00
2018-07-09T23:12:19.435Z,100035.00
2018-07-09T23:16:37.508Z,100037.00
2018-07-09T23:19:31.588Z,100037.00
2018-07-09T23:22:21.734Z,100035.00
2018-07-09T23:24:50.196Z,100031.00
2018-07-09T23:27:18.907Z,100034.00
2018-07-09T23:29:47.232Z,100036.00
2018-07-09T23:32:15.679Z,100035.00
2018-07-09T23:34:44.125Z,100031.00
2018-07-09T23:37:13.720Z,100029.00
2018-07-09T23:39:42.683Z,100034.00
2018-07-09T23:42:11.416Z,100033.00
2018-07-09T23:44:39.856Z,100029.00
2018-07-09T23:47:08.308Z,100028.00
2018-07-09T23:49:36.756Z,100026.00
2018-07-09T23:52:05.216Z,100020.00
2018-07-09T23:54:33.924Z,100021.00
2018-07-09T23:58:18.568Z,100019.00
